createdAt,value
2019-04-30T00:01:26.790Z,101779.09
2019-04-30T00:04:00.690Z,101782.26
2019-04-30T00:06:34.374Z,101780.85
2019-04-30T00:09:02.433Z,101778.05
2019-04-30T00:11:32.496Z,101773.56
2019-04-30T00:14:02.586Z,101782.87
2019-04-30T00:16:36.195Z,101783.51
2019-04-30T00:19:06.135Z,101783.42
2019-04-30T00:21:36.386Z,101779.69
2019-04-30T00:24:10.282Z,101777.69
2019-04-30T00:26:39.942Z,101778.27
2019-04-30T00:29:10.070Z,101775.68
2019-04-30T00:31:40.067Z,101778.76
2019-04-30T00:34:10.175Z,101775.89
2019-04-30T00:36:40.153Z,101774.16
2019-04-30T00:39:13.314Z,101767.62
2019-04-30T00:41:45.913Z,101765.89
2019-04-30T00:44:15.144Z,101767.27
2019-04-30T00:46:45.792Z,101763.41
2019-04-30T00:49:22.854Z,101764.55
2019-04-30T00:51:49.895Z,101761.86
2019-04-30T00:54:22.553Z,101758.84
2019-04-30T00:56:52.177Z,101758.42
2019-04-30T00:59:22.183Z,101753.36
2019-04-30T01:02:06.076Z,101755.97
2019-04-30T01:04:47.830Z,101757.62
2019-04-30T01:07:17.800Z,101755.85
2019-04-30T01:09:49.877Z,101756.27
2019-04-30T01:12:27.711Z,101753.69
2019-04-30T01:14:51.220Z,101761.55
2019-04-30T01:17:21.186Z,101759.41
2019-04-30T01:19:54.536Z,101752.17
2019-04-30T01:22:28.196Z,101751.15
2019-04-30T01:24:54.793Z,101754.75
2019-04-30T01:27:24.807Z,101755.70
2019-04-30T01:29:54.968Z,101753.59
2019-04-30T01:32:24.992Z,101754.63
2019-04-30T01:34:55.538Z,101758.34
2019-04-30T01:37:29.632Z,101749.85
2019-04-30T01:39:58.938Z,101750.13
2019-04-30T01:42:29.050Z,101755.41
2019-04-30T01:44:59.060Z,101755.03
2019-04-30T01:47:31.220Z,101748.11
2019-04-30T01:50:04.730Z,101746.67
2019-04-30T01:52:50.506Z,101745.46
2019-04-30T01:55:22.158Z,101746.80
2019-04-30T01:58:14.204Z,101750.91
2019-04-30T02:00:51.288Z,101751.64
2019-04-30T02:03:21.713Z,101753.83
2019-04-30T02:05:51.753Z,101748.13
2019-04-30T02:08:21.804Z,101745.61
2019-04-30T02:10:51.906Z,101747.15
2019-04-30T02:13:21.891Z,101739.09
2019-04-30T02:15:51.896Z,101753.46
2019-04-30T02:18:21.989Z,101742.48
2019-04-30T02:20:51.964Z,101741.30
2019-04-30T02:23:21.989Z,101742.36
2019-04-30T02:25:52.069Z,101748.77
2019-04-30T02:28:22.088Z,101743.80
2019-04-30T02:30:52.145Z,101740.62
2019-04-30T02:33:22.261Z,101743.20
2019-04-30T02:36:20.260Z,101744.84
2019-04-30T02:38:52.724Z,101747.12
2019-04-30T02:41:23.029Z,101741.86
2019-04-30T02:43:54.583Z,101739.17
2019-04-30T02:46:29.213Z,101737.20
2019-04-30T02:48:59.777Z,101728.95
2019-04-30T02:51:31.664Z,101737.50
2019-04-30T02:54:31.544Z,101732.54
2019-04-30T02:57:14.337Z,101733.88
2019-04-30T03:00:02.497Z,101732.17
2019-04-30T03:02:33.225Z,101732.88
2019-04-30T03:05:03.229Z,101732.77
2019-04-30T03:07:33.235Z,101725.44
2019-04-30T03:10:03.286Z,101725.23
2019-04-30T03:12:33.889Z,101724.59
2019-04-30T03:15:04.031Z,101735.05
2019-04-30T03:17:50.609Z,101729.05
2019-04-30T03:20:36.851Z,101726.36
2019-04-30T03:23:09.838Z,101726.36
2019-04-30T03:25:40.592Z,101722.03
2019-04-30T03:28:10.707Z,101714.80
2019-04-30T03:30:41.795Z,101717.30
2019-04-30T03:33:13.285Z,101716.45
2019-04-30T03:35:47.807Z,101713.25
2019-04-30T03:38:15.398Z,101709.45
2019-04-30T03:40:45.337Z,101708.52
2019-04-30T03:43:15.364Z,101707.89
2019-04-30T03:45:45.325Z,101711.83
2019-04-30T03:48:15.328Z,101712.87
2019-04-30T03:50:53.296Z,101717.25
2019-04-30T03:53:17.069Z,101710.38
2019-04-30T03:55:47.157Z,101711.61
2019-04-30T03:58:20.806Z,101707.59
2019-04-30T04:01:14.217Z,101704.52
2019-04-30T04:04:02.361Z,101698.31
2019-04-30T04:06:39.474Z,101704.31
2019-04-30T04:09:21.959Z,101708.84
2019-04-30T04:11:51.009Z,101700.50
2019-04-30T04:14:21.181Z,101702.55
2019-04-30T04:16:51.224Z,101709.77
2019-04-30T04:19:21.315Z,101712.09
2019-04-30T04:21:51.315Z,101713.09
2019-04-30T04:24:21.327Z,101716.73
2019-04-30T04:26:51.357Z,101714.96
2019-04-30T04:29:21.425Z,101724.95
2019-04-30T04:31:51.403Z,101720.70
2019-04-30T04:34:21.393Z,101718.27
2019-04-30T04:36:51.432Z,101722.08
2019-04-30T04:39:21.430Z,101718.58
2019-04-30T04:41:51.540Z,101716.52
2019-04-30T04:44:21.531Z,101718.41
2019-04-30T04:46:51.491Z,101720.33
2019-04-30T04:49:21.492Z,101726.42
2019-04-30T04:51:51.459Z,101723.56
2019-04-30T04:54:21.554Z,101735.23
2019-04-30T04:56:54.749Z,101725.08
2019-04-30T04:59:23.279Z,101722.97
2019-04-30T05:01:53.342Z,101726.23
2019-04-30T05:04:23.375Z,101723.05
2019-04-30T05:06:53.372Z,101729.92
2019-04-30T05:09:23.418Z,101718.11
2019-04-30T05:11:53.496Z,101722.40
2019-04-30T05:14:23.516Z,101722.86
2019-04-30T05:16:53.509Z,101722.59
2019-04-30T05:19:23.550Z,101715.41
2019-04-30T05:21:53.532Z,101718.46
2019-04-30T05:24:23.531Z,101714.91
2019-04-30T05:26:53.521Z,101716.47
2019-04-30T05:29:23.550Z,101717.40
2019-04-30T05:31:53.593Z,101717.39
2019-04-30T05:34:23.610Z,101717.53
2019-04-30T05:36:53.632Z,101718.18
2019-04-30T05:39:23.628Z,101713.62
2019-04-30T05:41:53.663Z,101710.56
2019-04-30T05:44:23.673Z,101707.80
2019-04-30T05:46:53.668Z,101712.77
2019-04-30T05:49:23.751Z,101712.61
2019-04-30T05:51:55.875Z,101712.11
2019-04-30T05:54:25.453Z,101716.42
2019-04-30T05:56:55.446Z,101711.11
2019-04-30T05:59:25.488Z,101714.90
2019-04-30T06:01:55.618Z,101710.89
2019-04-30T06:04:25.575Z,101714.51
2019-04-30T06:06:55.609Z,101716.31
2019-04-30T06:09:34.262Z,101710.88
2019-04-30T06:12:22.175Z,101711.90
2019-04-30T06:14:56.206Z,101719.05
2019-04-30T06:17:29.396Z,101721.06
2019-04-30T06:19:59.462Z,101721.56
2019-04-30T06:22:29.519Z,101721.92
2019-04-30T06:24:59.600Z,101723.20
2019-04-30T06:27:29.918Z,101726.52
2019-04-30T06:29:59.898Z,101723.52
2019-04-30T06:32:30.070Z,101725.79
2019-04-30T06:35:00.064Z,101722.28
2019-04-30T06:37:31.561Z,101721.87
2019-04-30T06:40:01.742Z,101722.40
2019-04-30T06:42:31.833Z,101719.36
2019-04-30T06:45:01.832Z,101720.98
2019-04-30T06:47:33.450Z,101719.36
2019-04-30T06:50:03.548Z,101723.28
2019-04-30T06:52:33.583Z,101715.92
2019-04-30T06:55:03.613Z,101723.98
2019-04-30T06:57:33.643Z,101712.25
2019-04-30T07:00:03.647Z,101706.46
2019-04-30T07:02:33.735Z,101711.91
2019-04-30T07:05:03.779Z,101711.62
2019-04-30T07:07:39.004Z,101711.11
2019-04-30T07:10:17.000Z,101706.66
2019-04-30T07:12:50.609Z,101714.73
2019-04-30T07:15:20.626Z,101720.98
2019-04-30T07:17:50.645Z,101711.89
2019-04-30T07:20:20.660Z,101716.57
2019-04-30T07:22:59.113Z,101713.23
2019-04-30T07:25:22.436Z,101710.63
2019-04-30T07:27:52.498Z,101714.92
2019-04-30T07:30:22.584Z,101706.01
2019-04-30T07:32:52.718Z,101710.11
2019-04-30T07:35:22.740Z,101701.53
2019-04-30T07:37:54.636Z,101705.36
2019-04-30T07:40:24.489Z,101702.80
2019-04-30T07:42:54.618Z,101700.92
2019-04-30T07:45:25.765Z,101687.28
2019-04-30T07:47:55.853Z,101697.39
2019-04-30T07:50:26.453Z,101695.58
2019-04-30T07:53:04.736Z,101691.09
2019-04-30T07:55:29.544Z,101684.36
2019-04-30T07:57:59.699Z,101683.86
2019-04-30T08:00:31.315Z,101684.02
2019-04-30T08:03:10.693Z,101680.41
2019-04-30T08:05:42.693Z,101677.70
2019-04-30T08:08:21.211Z,101677.99
2019-04-30T08:10:44.540Z,101674.08
2019-04-30T08:13:15.757Z,101672.48
2019-04-30T08:15:46.508Z,101675.67
2019-04-30T08:18:18.397Z,101679.91
2019-04-30T08:20:49.016Z,101679.83
2019-04-30T08:23:33.061Z,101686.60
2019-04-30T08:25:50.827Z,101677.47
2019-04-30T08:28:20.873Z,101675.75
2019-04-30T08:30:50.877Z,101678.81
2019-04-30T08:33:21.020Z,101682.62
2019-04-30T08:35:51.097Z,101680.84
2019-04-30T08:38:21.143Z,101682.50
2019-04-30T08:40:55.986Z,101679.12
2019-04-30T08:43:22.929Z,101677.00
2019-04-30T08:45:53.010Z,101676.81
2019-04-30T08:48:23.081Z,101679.56
2019-04-30T08:53:29.507Z,101677.94
2019-04-30T08:55:53.851Z,101672.23
2019-04-30T08:58:23.993Z,101668.83
2019-04-30T09:00:54.135Z,101658.41
2019-04-30T09:03:24.243Z,101663.38
2019-04-30T09:06:01.255Z,101654.36
2019-04-30T09:08:31.349Z,101658.43
2019-04-30T09:11:01.385Z,101653.85
2019-04-30T09:13:31.419Z,101654.75
2019-04-30T09:16:01.454Z,101653.61
2019-04-30T09:18:31.508Z,101649.25
2019-04-30T09:21:06.074Z,101661.41
2019-04-30T09:23:43.965Z,101658.43
2019-04-30T09:26:05.125Z,101653.98
2019-04-30T09:28:35.131Z,101649.08
2019-04-30T09:31:05.211Z,101651.17
2019-04-30T09:33:35.210Z,101648.20
2019-04-30T09:36:05.348Z,101652.08
2019-04-30T09:38:35.391Z,101649.75
2019-04-30T09:41:05.505Z,101648.11
2019-04-30T09:43:35.545Z,101650.54
2019-04-30T09:46:15.391Z,101644.96
2019-04-30T09:48:38.645Z,101649.73
2019-04-30T09:51:10.761Z,101645.13
2019-04-30T09:53:40.946Z,101644.25
2019-04-30T09:56:11.126Z,101644.25
2019-04-30T09:58:41.223Z,101633.56
2019-04-30T10:01:11.267Z,101637.27
2019-04-30T10:03:42.016Z,101635.66
2019-04-30T10:06:12.565Z,101630.53
2019-04-30T10:08:48.443Z,101627.52
2019-04-30T10:11:50.115Z,101635.16
2019-04-30T10:17:42.025Z,101622.89
2019-04-30T10:20:13.354Z,101619.89
2019-04-30T10:22:43.384Z,101621.05
2019-04-30T10:25:13.623Z,101615.34
2019-04-30T10:27:43.674Z,101616.44
2019-04-30T10:30:14.693Z,101619.95
2019-04-30T10:32:44.737Z,101621.05
2019-04-30T10:35:14.795Z,101606.06
2019-04-30T10:37:44.828Z,101606.58
2019-04-30T10:40:15.161Z,101604.16
2019-04-30T10:42:45.193Z,101595.41
2019-04-30T10:45:15.468Z,101597.08
2019-04-30T10:47:45.468Z,101601.69
2019-04-30T10:50:15.692Z,101594.88
2019-04-30T10:52:45.764Z,101602.82
2019-04-30T10:55:15.788Z,101595.91
2019-04-30T10:57:45.844Z,101592.80
2019-04-30T11:00:16.275Z,101587.82
2019-04-30T11:02:46.314Z,101584.17
2019-04-30T11:05:16.510Z,101580.88
2019-04-30T11:07:46.646Z,101586.14
2019-04-30T11:10:18.773Z,101585.85
2019-04-30T11:12:48.652Z,101585.13
2019-04-30T11:15:20.634Z,101572.56
2019-04-30T11:17:50.810Z,101576.25
2019-04-30T11:20:22.196Z,101580.96
2019-04-30T11:22:54.761Z,101573.92
2019-04-30T11:25:25.051Z,101577.31
2019-04-30T11:27:56.399Z,101573.51
2019-04-30T11:30:27.715Z,101569.50
2019-04-30T11:32:58.792Z,101565.89
2019-04-30T11:35:29.704Z,101563.89
2019-04-30T11:37:59.836Z,101557.73
2019-04-30T11:40:36.874Z,101553.79
2019-04-30T11:43:03.622Z,101545.37
2019-04-30T11:46:18.709Z,101556.75
2019-04-30T11:48:49.088Z,101544.61
2019-04-30T11:51:19.437Z,101548.37
2019-04-30T11:53:49.802Z,101541.89
2019-04-30T11:56:19.810Z,101540.72
2019-04-30T11:58:49.850Z,101526.13
2019-04-30T12:01:22.382Z,101528.81
2019-04-30T12:03:52.468Z,101528.00
2019-04-30T12:06:22.507Z,101525.79
2019-04-30T12:09:09.205Z,101521.07
2019-04-30T12:11:39.230Z,101522.27
2019-04-30T12:14:09.249Z,101520.46
2019-04-30T12:16:39.623Z,101511.70
2019-04-30T12:19:09.932Z,101512.62
2019-04-30T12:21:39.954Z,101517.91
2019-04-30T12:24:09.998Z,101510.93
2019-04-30T12:26:40.026Z,101506.55
2019-04-30T12:29:11.241Z,101502.42
2019-04-30T12:31:41.416Z,101496.39
2019-04-30T12:34:11.466Z,101495.41
2019-04-30T12:36:41.500Z,101497.84
2019-04-30T12:39:11.622Z,101498.91
2019-04-30T12:41:41.648Z,101497.17
2019-04-30T12:44:11.788Z,101486.03
2019-04-30T12:46:41.980Z,101484.55
2019-04-30T12:49:13.106Z,101493.75
2019-04-30T12:51:59.866Z,101484.81
2019-04-30T12:54:50.866Z,101485.66
2019-04-30T12:57:56.142Z,101482.63
2019-04-30T13:00:19.514Z,101489.88
2019-04-30T13:02:49.668Z,101473.65
2019-04-30T13:05:20.679Z,101479.59
2019-04-30T13:07:51.389Z,101468.00
2019-04-30T13:10:22.670Z,101472.98
2019-04-30T13:12:53.595Z,101460.70
2019-04-30T13:15:24.027Z,101459.78
2019-04-30T13:17:54.161Z,101463.34
2019-04-30T13:20:24.517Z,101460.95
2019-04-30T13:22:54.836Z,101447.91
2019-04-30T13:25:32.488Z,101453.98
2019-04-30T13:28:01.410Z,101455.77
2019-04-30T13:30:32.262Z,101455.85
2019-04-30T13:33:20.259Z,101449.91
2019-04-30T13:35:48.970Z,101460.55
2019-04-30T13:38:30.348Z,101452.11
2019-04-30T13:41:06.194Z,101450.68
2019-04-30T13:43:54.011Z,101451.83
2019-04-30T13:46:24.525Z,101446.46
2019-04-30T13:48:54.566Z,101441.57
2019-04-30T13:51:24.687Z,101437.98
2019-04-30T13:53:54.720Z,101444.81
2019-04-30T13:56:24.811Z,101442.68
2019-04-30T13:58:54.834Z,101436.82
2019-04-30T14:01:24.913Z,101435.60
2019-04-30T14:04:17.318Z,101441.25
2019-04-30T14:07:15.751Z,101435.16
2019-04-30T14:09:45.956Z,101440.70
2019-04-30T14:12:15.986Z,101432.47
2019-04-30T14:14:46.075Z,101429.89
2019-04-30T14:17:17.295Z,101430.81
2019-04-30T14:19:48.453Z,101432.96
2019-04-30T14:22:18.593Z,101432.65
2019-04-30T14:24:48.689Z,101425.65
2019-04-30T14:27:18.726Z,101429.98
2019-04-30T14:29:51.114Z,101420.92
2019-04-30T14:32:21.175Z,101422.19
2019-04-30T14:34:51.273Z,101421.34
2019-04-30T14:37:21.467Z,101418.69
2019-04-30T14:39:52.170Z,101425.73
2019-04-30T14:42:23.605Z,101416.80
2019-04-30T14:45:03.843Z,101420.25
2019-04-30T14:47:42.827Z,101427.16
2019-04-30T14:50:15.324Z,101422.79
2019-04-30T14:53:07.427Z,101427.08
2019-04-30T14:56:09.477Z,101421.98
2019-04-30T14:58:55.637Z,101415.41
2019-04-30T15:01:45.659Z,101413.48
2019-04-30T15:04:15.714Z,101416.20
2019-04-30T15:06:45.793Z,101414.73
2019-04-30T15:09:15.999Z,101411.35
2019-04-30T15:11:46.085Z,101407.38
2019-04-30T15:14:16.149Z,101404.21
2019-04-30T15:16:46.220Z,101406.48
2019-04-30T15:19:16.361Z,101410.48
2019-04-30T15:21:46.497Z,101398.43
2019-04-30T15:24:30.163Z,101407.73
2019-04-30T15:27:00.209Z,101408.06
2019-04-30T15:29:30.397Z,101409.86
2019-04-30T15:32:00.502Z,101387.83
2019-04-30T15:34:30.537Z,101405.34
2019-04-30T15:37:00.606Z,101400.83
2019-04-30T15:39:49.031Z,101401.67
2019-04-30T15:42:20.372Z,101399.14
2019-04-30T15:44:50.522Z,101398.91
2019-04-30T15:47:21.759Z,101396.88
2019-04-30T15:49:51.968Z,101393.06
2019-04-30T15:52:22.075Z,101394.03
2019-04-30T15:54:52.077Z,101396.88
2019-04-30T15:57:22.134Z,101399.28
2019-04-30T15:59:52.161Z,101397.38
2019-04-30T16:02:35.197Z,101396.07
2019-04-30T16:05:25.343Z,101393.63
2019-04-30T16:08:20.408Z,101397.27
2019-04-30T16:11:03.786Z,101400.22
2019-04-30T16:13:42.538Z,101400.78
2019-04-30T16:16:13.280Z,101400.26
2019-04-30T16:18:49.354Z,101399.21
2019-04-30T16:21:19.596Z,101401.62
2019-04-30T16:23:49.668Z,101396.19
2019-04-30T16:26:19.745Z,101402.20
2019-04-30T16:28:49.797Z,101398.11
2019-04-30T16:31:20.537Z,101406.83
2019-04-30T16:33:50.883Z,101396.45
2019-04-30T16:36:20.920Z,101392.44
2019-04-30T16:38:50.988Z,101396.25
2019-04-30T16:41:31.191Z,101386.44
2019-04-30T16:43:52.889Z,101389.42
2019-04-30T16:46:22.932Z,101389.39
2019-04-30T16:48:53.046Z,101382.36
2019-04-30T16:51:23.096Z,101382.66
2019-04-30T16:53:53.215Z,101389.98
2019-04-30T16:56:23.322Z,101394.06
2019-04-30T16:58:59.437Z,101391.88
2019-04-30T17:01:30.957Z,101394.33
2019-04-30T17:04:22.326Z,101385.28
2019-04-30T17:06:58.828Z,101383.95
2019-04-30T17:09:43.619Z,101386.40
2019-04-30T17:12:38.770Z,101396.13
2019-04-30T17:15:24.294Z,101391.27
2019-04-30T17:17:54.432Z,101391.25
2019-04-30T17:20:24.611Z,101395.87
2019-04-30T17:22:54.633Z,101388.77
2019-04-30T17:25:24.685Z,101390.94
2019-04-30T17:27:54.713Z,101391.47
2019-04-30T17:30:24.853Z,101393.59
2019-04-30T17:32:54.986Z,101393.81
2019-04-30T17:35:25.035Z,101392.23
2019-04-30T17:37:55.080Z,101393.31
2019-04-30T17:40:25.257Z,101384.58
2019-04-30T17:42:55.268Z,101385.79
2019-04-30T17:45:25.351Z,101385.19
2019-04-30T17:47:55.406Z,101395.63
2019-04-30T17:50:25.481Z,101396.63
2019-04-30T17:52:55.553Z,101393.69
2019-04-30T17:55:25.652Z,101393.50
2019-04-30T17:57:55.723Z,101390.31
2019-04-30T18:00:29.278Z,101392.03
2019-04-30T18:02:59.432Z,101391.52
2019-04-30T18:05:29.786Z,101387.13
2019-04-30T18:07:59.895Z,101391.60
2019-04-30T18:10:30.563Z,101391.39
2019-04-30T18:13:00.622Z,101388.20
2019-04-30T18:15:31.165Z,101400.96
2019-04-30T18:18:13.413Z,101395.44
2019-04-30T18:20:49.156Z,101395.64
2019-04-30T18:23:29.132Z,101403.62
2019-04-30T18:26:04.559Z,101398.47
2019-04-30T18:28:34.618Z,101398.97
2019-04-30T18:31:04.771Z,101401.80
2019-04-30T18:33:34.836Z,101398.14
2019-04-30T18:36:04.913Z,101398.17
2019-04-30T18:38:34.933Z,101407.05
2019-04-30T18:41:04.991Z,101406.39
2019-04-30T18:43:37.822Z,101407.25
2019-04-30T18:46:06.863Z,101400.54
2019-04-30T18:48:36.872Z,101399.08
2019-04-30T18:51:19.189Z,101398.44
2019-04-30T18:53:39.712Z,101391.90
2019-04-30T18:56:14.534Z,101403.00
2019-04-30T18:58:43.136Z,101396.95
2019-04-30T19:01:13.618Z,101405.20
2019-04-30T19:03:43.670Z,101408.46
2019-04-30T19:06:23.805Z,101412.56
2019-04-30T19:09:09.640Z,101411.75
2019-04-30T19:11:45.903Z,101417.22
2019-04-30T19:14:40.596Z,101416.98
2019-04-30T19:17:24.022Z,101417.00
2019-04-30T19:20:06.463Z,101417.02
2019-04-30T19:22:36.536Z,101421.02
2019-04-30T19:25:06.651Z,101415.88
2019-04-30T19:27:36.722Z,101420.08
2019-04-30T19:30:09.311Z,101428.82
2019-04-30T19:32:39.483Z,101430.79
2019-04-30T19:35:09.640Z,101428.39
2019-04-30T19:37:40.346Z,101423.14
2019-04-30T19:40:10.594Z,101425.50
2019-04-30T19:42:40.671Z,101430.77
2019-04-30T19:45:12.474Z,101429.99
2019-04-30T19:47:42.501Z,101433.05
2019-04-30T19:50:14.107Z,101431.56
2019-04-30T19:52:44.537Z,101426.28
2019-04-30T19:55:14.572Z,101430.45
2019-04-30T19:57:44.678Z,101425.88
2019-04-30T20:00:14.832Z,101430.39
2019-04-30T20:02:44.863Z,101424.38
2019-04-30T20:05:14.969Z,101423.84
2019-04-30T20:07:45.094Z,101422.42
2019-04-30T20:10:15.248Z,101431.45
2019-04-30T20:12:45.300Z,101433.58
2019-04-30T20:15:19.051Z,101433.89
2019-04-30T20:17:47.108Z,101436.07
2019-04-30T20:20:18.895Z,101442.55
2019-04-30T20:22:51.776Z,101440.09
2019-04-30T20:25:20.767Z,101431.20
2019-04-30T20:27:50.858Z,101430.03
2019-04-30T20:30:20.936Z,101432.33
2019-04-30T20:32:51.405Z,101428.59
2019-04-30T20:35:21.522Z,101434.60
2019-04-30T20:38:09.564Z,101436.67
2019-04-30T20:40:43.637Z,101434.09
2019-04-30T20:43:13.305Z,101437.53
2019-04-30T20:45:43.340Z,101435.16
2019-04-30T20:48:13.378Z,101435.76
2019-04-30T20:50:43.393Z,101431.83
2019-04-30T20:53:13.582Z,101428.08
2019-04-30T20:55:43.620Z,101423.44
2019-04-30T20:58:13.643Z,101418.89
2019-04-30T21:00:43.659Z,101413.68
2019-04-30T21:03:13.735Z,101421.69
2019-04-30T21:05:43.744Z,101412.52
2019-04-30T21:08:13.824Z,101411.15
2019-04-30T21:10:43.858Z,101417.69
2019-04-30T21:13:14.004Z,101407.61
2019-04-30T21:15:44.035Z,101409.20
2019-04-30T21:18:14.132Z,101403.01
2019-04-30T21:20:44.149Z,101409.32
2019-04-30T21:23:14.319Z,101412.15
2019-04-30T21:25:44.317Z,101400.63
2019-04-30T21:28:14.391Z,101400.81
2019-04-30T21:30:44.482Z,101396.28
2019-04-30T21:33:42.611Z,101399.58
2019-04-30T21:36:18.420Z,101393.89
2019-04-30T21:38:49.048Z,101388.30
2019-04-30T21:41:19.633Z,101395.63
2019-04-30T21:43:49.847Z,101393.45
2019-04-30T21:46:19.926Z,101388.29
2019-04-30T21:48:49.995Z,101392.93
2019-04-30T21:51:20.075Z,101384.80
2019-04-30T21:53:50.474Z,101391.66
2019-04-30T21:56:20.597Z,101391.48
2019-04-30T21:58:50.673Z,101398.00
2019-04-30T22:01:27.301Z,101400.20
2019-04-30T22:03:57.433Z,101397.93
2019-04-30T22:06:29.441Z,101400.33
2019-04-30T22:08:59.292Z,101397.84
2019-04-30T22:11:29.724Z,101404.69
2019-04-30T22:13:59.965Z,101400.53
2019-04-30T22:16:29.995Z,101411.33
2019-04-30T22:19:00.115Z,101400.38
2019-04-30T22:21:30.532Z,101400.56
2019-04-30T22:24:00.652Z,101400.38
2019-04-30T22:26:30.696Z,101400.70
2019-04-30T22:29:00.764Z,101406.28
2019-04-30T22:31:30.831Z,101411.11
2019-04-30T22:34:00.907Z,101403.02
2019-04-30T22:36:41.764Z,101404.44
2019-04-30T22:39:46.004Z,101405.34
2019-04-30T22:42:36.584Z,101403.30
2019-04-30T22:45:19.142Z,101399.25
2019-04-30T22:47:50.365Z,101386.28
2019-04-30T22:50:20.628Z,101396.11
2019-04-30T22:52:50.683Z,101390.66
2019-04-30T22:55:20.754Z,101394.09
2019-04-30T22:57:50.770Z,101402.48
2019-04-30T23:00:26.302Z,101399.97
2019-04-30T23:02:58.876Z,101398.01
2019-04-30T23:05:28.940Z,101392.63
2019-04-30T23:07:59.024Z,101394.48
2019-04-30T23:10:29.104Z,101386.92
2019-04-30T23:12:59.122Z,101382.11
2019-04-30T23:15:29.266Z,101374.94
2019-04-30T23:17:59.302Z,101372.71
2019-04-30T23:20:29.755Z,101374.45
2019-04-30T23:22:59.762Z,101363.45
2019-04-30T23:25:29.868Z,101367.27
2019-04-30T23:27:59.874Z,101370.78
2019-04-30T23:30:30.328Z,101366.78
2019-04-30T23:33:00.560Z,101360.86
2019-04-30T23:35:30.585Z,101356.03
2019-04-30T23:38:00.631Z,101357.55
2019-04-30T23:40:37.178Z,101351.80
2019-04-30T23:43:07.262Z,101349.44
2019-04-30T23:45:37.296Z,101350.77
2019-04-30T23:48:07.338Z,101347.22
2019-04-30T23:50:37.426Z,101340.75
2019-04-30T23:53:07.510Z,101337.47
2019-04-30T23:55:37.522Z,101336.84
2019-04-30T23:58:07.589Z,101335.89
